sensor_id;sensor_type;location;lat;lon;timestamp;pressure;altitude;pressure_sealevel;temperature;humidity
70445;BME280;57902;49.638;11.070;2023-03-20T00:00:17;98433.91;;;7.77;100.00
70445;BME280;57902;49.638;11.070;2023-03-20T00:02:45;98426.09;;;7.83;100.00
70445;BME280;57902;49.638;11.070;2023-03-20T00:05:20;98435.59;;;7.80;100.00
70445;BME280;57902;49.638;11.070;2023-03-20T00:07:47;98435.63;;;7.78;100.00
70445;BME280;57902;49.638;11.070;2023-03-20T00:10:16;98433.13;;;7.72;100.00
70445;BME280;57902;49.638;11.070;2023-03-20T00:12:43;98430.53;;;7.74;100.00
70445;BME280;57902;49.638;11.070;2023-03-20T00:15:26;98439.13;;;7.73;100.00
70445;BME280;57902;49.638;11.070;2023-03-20T00:17:53;98428.00;;;7.72;100.00
70445;BME280;57902;49.638;11.070;2023-03-20T00:20:20;98434.00;;;7.73;100.00
70445;BME280;57902;49.638;11.070;2023-03-20T00:22:47;98425.41;;;7.74;100.00
70445;BME280;57902;49.638;11.070;2023-03-20T00:25:16;98430.56;;;7.70;100.00
70445;BME280;57902;49.638;11.070;2023-03-20T00:27:43;98431.44;;;7.71;100.00
70445;BME280;57902;49.638;11.070;2023-03-20T00:30:22;98434.03;;;7.69;100.00
70445;BME280;57902;49.638;11.070;2023-03-20T00:32:50;98429.78;;;7.68;100.00
70445;BME280;57902;49.638;11.070;2023-03-20T00:35:20;98431.41;;;7.74;100.00
70445;BME280;57902;49.638;11.070;2023-03-20T00:37:48;98425.41;;;7.74;100.00
70445;BME280;57902;49.638;11.070;2023-03-20T00:40:14;98426.31;;;7.71;100.00
70445;BME280;57902;49.638;11.070;2023-03-20T00:42:43;98428.84;;;7.73;100.00
70445;BME280;57902;49.638;11.070;2023-03-20T00:45:13;98426.25;;;7.74;100.00
70445;BME280;57902;49.638;11.070;2023-03-20T00:47:41;98415.06;;;7.80;100.00
70445;BME280;57902;49.638;11.070;2023-03-20T00:50:35;98422.81;;;7.75;100.00
70445;BME280;57902;49.638;11.070;2023-03-20T00:53:01;98425.38;;;7.77;100.00
70445;BME280;57902;49.638;11.070;2023-03-20T00:55:28;98429.69;;;7.73;100.00
70445;BME280;57902;49.638;11.070;2023-03-20T00:57:57;98428.94;;;7.65;100.00
70445;BME280;57902;49.638;11.070;2023-03-20T01:00:39;98430.72;;;7.63;100.00
70445;BME280;57902;49.638;11.070;2023-03-20T01:03:14;98423.91;;;7.60;100.00
70445;BME280;57902;49.638;11.070;2023-03-20T01:05:43;98425.47;;;7.69;100.00
70445;BME280;57902;49.638;11.070;2023-03-20T01:08:18;98415.22;;;7.67;100.00
70445;BME280;57902;49.638;11.070;2023-03-20T01:10:47;98419.47;;;7.70;100.00
70445;BME280;57902;49.638;11.070;2023-03-20T01:13:26;98424.81;;;7.58;100.00
70445;BME280;57902;49.638;11.070;2023-03-20T01:15:54;98424.75;;;7.61;100.00
70445;BME280;57902;49.638;11.070;2023-03-20T01:18:23;98419.69;;;7.58;100.00
70445;BME280;57902;49.638;11.070;2023-03-20T01:20:50;98423.97;;;7.56;100.00
70445;BME280;57902;49.638;11.070;2023-03-20T01:23:19;98422.28;;;7.56;100.00
70445;BME280;57902;49.638;11.070;2023-03-20T01:25:49;98419.63;;;7.61;100.00
70445;BME280;57902;49.638;11.070;2023-03-20T01:28:18;98423.84;;;7.63;100.00
70445;BME280;57902;49.638;11.070;2023-03-20T01:30:45;98424.72;;;7.64;100.00
70445;BME280;57902;49.638;11.070;2023-03-20T01:33:14;98424.72;;;7.64;100.00
70445;BME280;57902;49.638;11.070;2023-03-20T01:35:42;98423.81;;;7.65;100.00
70445;BME280;57902;49.638;11.070;2023-03-20T01:38:16;98428.06;;;7.67;100.00
70445;BME280;57902;49.638;11.070;2023-03-20T01:40:52;98434.13;;;7.62;100.00
70445;BME280;57902;49.638;11.070;2023-03-20T01:43:22;98440.16;;;7.61;100.00
70445;BME280;57902;49.638;11.070;2023-03-20T01:45:51;98442.78;;;7.58;100.00
70445;BME280;57902;49.638;11.070;2023-03-20T01:48:22;98439.38;;;7.56;100.00
70445;BME280;57902;49.638;11.070;2023-03-20T01:50:50;98441.97;;;7.52;100.00
70445;BME280;57902;49.638;11.070;2023-03-20T01:53:23;98443.59;;;7.58;100.00
70445;BME280;57902;49.638;11.070;2023-03-20T01:55:53;98446.16;;;7.58;100.00
70445;BME280;57902;49.638;11.070;2023-03-20T01:58:31;98446.22;;;7.55;100.00
70445;BME280;57902;49.638;11.070;2023-03-20T02:01:02;98450.41;;;7.61;100.00
70445;BME280;57902;49.638;11.070;2023-03-20T02:03:30;98448.78;;;7.55;100.00
70445;BME280;57902;49.638;11.070;2023-03-20T02:05:57;98446.22;;;7.55;100.00
70445;BME280;57902;49.638;11.070;2023-03-20T02:08:27;98444.47;;;7.57;100.00
70445;BME280;57902;49.638;11.070;2023-03-20T02:10:56;98450.47;;;7.58;100.00
70445;BME280;57902;49.638;11.070;2023-03-20T02:13:25;98449.63;;;7.56;100.00
70445;BME280;57902;49.638;11.070;2023-03-20T02:16:12;98454.75;;;7.56;100.00
70445;BME280;57902;49.638;11.070;2023-03-20T02:18:41;98453.06;;;7.56;100.00
70445;BME280;57902;49.638;11.070;2023-03-20T02:27:38;98461.59;;;7.57;100.00
70445;BME280;57902;49.638;11.070;2023-03-20T02:41:15;98456.59;;;7.47;100.00
70445;BME280;57902;49.638;11.070;2023-03-20T02:44:07;98458.25;;;7.50;100.00
70445;BME280;57902;49.638;11.070;2023-03-20T02:47:02;98460.06;;;7.45;100.00
70445;BME280;57902;49.638;11.070;2023-03-20T02:49:38;98452.34;;;7.45;100.00
70445;BME280;57902;49.638;11.070;2023-03-20T03:02:43;98447.19;;;7.48;100.00
70445;BME280;57902;49.638;11.070;2023-03-20T03:05:21;98458.28;;;7.48;100.00
70445;BME280;57902;49.638;11.070;2023-03-20T03:07:51;98460.06;;;7.43;100.00
70445;BME280;57902;49.638;11.070;2023-03-20T03:10:23;98467.72;;;7.46;100.00
70445;BME280;57902;49.638;11.070;2023-03-20T03:12:53;98458.22;;;7.53;100.00
70445;BME280;57902;49.638;11.070;2023-03-20T03:15:23;98464.22;;;7.53;100.00
70445;BME280;57902;49.638;11.070;2023-03-20T03:17:52;98470.25;;;7.49;100.00
70445;BME280;57902;49.638;11.070;2023-03-20T03:20:28;98468.59;;;7.45;100.00
70445;BME280;57902;49.638;11.070;2023-03-20T03:22:56;98466.06;;;7.42;100.00
70445;BME280;57902;49.638;11.070;2023-03-20T03:25:25;98469.44;;;7.44;100.00
70445;BME280;57902;49.638;11.070;2023-03-20T03:28:01;98462.63;;;7.43;100.00
70445;BME280;57902;49.638;11.070;2023-03-20T03:30:30;98467.78;;;7.43;100.00
70445;BME280;57902;49.638;11.070;2023-03-20T03:35:37;98476.19;;;7.51;100.00
70445;BME280;57902;49.638;11.070;2023-03-20T03:38:29;98471.06;;;7.51;100.00
70445;BME280;57902;49.638;11.070;2023-03-20T03:44:10;98473.59;;;7.56;100.00
70445;BME280;57902;49.638;11.070;2023-03-20T03:47:01;98474.47;;;7.53;100.00
70445;BME280;57902;49.638;11.070;2023-03-20T03:49:32;98479.59;;;7.53;100.00
70445;BME280;57902;49.638;11.070;2023-03-20T03:52:05;98483.06;;;7.49;100.00
70445;BME280;57902;49.638;11.070;2023-03-20T03:54:39;98475.34;;;7.51;100.00
70445;BME280;57902;49.638;11.070;2023-03-20T03:57:09;98476.19;;;7.51;100.00
70445;BME280;57902;49.638;11.070;2023-03-20T03:59:42;98473.59;;;7.53;100.00
70445;BME280;57902;49.638;11.070;2023-03-20T04:02:11;98476.22;;;7.48;100.00
70445;BME280;57902;49.638;11.070;2023-03-20T04:04:42;98473.84;;;7.36;100.00
70445;BME280;57902;49.638;11.070;2023-03-20T04:07:13;98480.69;;;7.35;100.00
70445;BME280;57902;49.638;11.070;2023-03-20T04:09:40;98479.00;;;7.34;100.00
70445;BME280;57902;49.638;11.070;2023-03-20T04:12:32;98478.22;;;7.28;100.00
70445;BME280;57902;49.638;11.070;2023-03-20T04:14:59;98480.00;;;7.23;100.00
70445;BME280;57902;49.638;11.070;2023-03-20T04:17:29;98485.19;;;7.20;100.00
70445;BME280;57902;49.638;11.070;2023-03-20T04:19:55;98474.97;;;7.16;100.00
70445;BME280;57902;49.638;11.070;2023-03-20T04:22:22;98478.47;;;7.09;100.00
70445;BME280;57902;49.638;11.070;2023-03-20T04:24:48;98481.94;;;7.05;100.00
70445;BME280;57902;49.638;11.070;2023-03-20T04:27:15;98479.47;;;6.97;100.00
70445;BME280;57902;49.638;11.070;2023-03-20T04:29:42;98483.81;;;6.91;100.00
70445;BME280;57902;49.638;11.070;2023-03-20T04:32:09;98486.44;;;6.86;100.00
70445;BME280;57902;49.638;11.070;2023-03-20T04:34:36;98485.59;;;6.82;100.00
70445;BME280;57902;49.638;11.070;2023-03-20T04:37:02;98483.16;;;6.72;100.00
70445;BME280;57902;49.638;11.070;2023-03-20T04:39:30;98490.09;;;6.62;100.00
70445;BME280;57902;49.638;11.070;2023-03-20T04:41:57;98489.28;;;6.60;100.00
70445;BME280;57902;49.638;11.070;2023-03-20T04:44:23;98486.75;;;6.57;100.00
70445;BME280;57902;49.638;11.070;2023-03-20T04:46:49;98490.16;;;6.57;100.00
70445;BME280;57902;49.638;11.070;2023-03-20T04:49:16;98494.50;;;6.46;100.00
70445;BME280;57902;49.638;11.070;2023-03-20T04:51:42;98493.59;;;6.52;100.00
70445;BME280;57902;49.638;11.070;2023-03-20T04:54:09;98489.38;;;6.49;100.00
70445;BME280;57902;49.638;11.070;2023-03-20T04:56:36;98497.97;;;6.43;100.00
70445;BME280;57902;49.638;11.070;2023-03-20T04:59:02;98504.81;;;6.40;100.00
70445;BME280;57902;49.638;11.070;2023-03-20T05:01:28;98503.97;;;6.39;100.00
70445;BME280;57902;49.638;11.070;2023-03-20T05:03:55;98512.53;;;6.37;100.00
70445;BME280;57902;49.638;11.070;2023-03-20T05:06:27;98507.47;;;6.32;100.00
70445;BME280;57902;49.638;11.070;2023-03-20T05:08:54;98510.00;;;6.34;100.00
70445;BME280;57902;49.638;11.070;2023-03-20T05:11:20;98509.16;;;6.33;100.00
70445;BME280;57902;49.638;11.070;2023-03-20T05:13:47;98516.81;;;6.36;100.00
70445;BME280;57902;49.638;11.070;2023-03-20T05:16:13;98521.91;;;6.39;100.00
70445;BME280;57902;49.638;11.070;2023-03-20T05:18:39;98526.19;;;6.40;100.00
70445;BME280;57902;49.638;11.070;2023-03-20T05:21:06;98523.56;;;6.46;100.00
70445;BME280;57902;49.638;11.070;2023-03-20T05:23:33;98526.94;;;6.47;100.00
70445;BME280;57902;49.638;11.070;2023-03-20T05:26:00;98526.97;;;6.45;100.00
70445;BME280;57902;49.638;11.070;2023-03-20T05:28:27;98534.63;;;6.47;100.00
70445;BME280;57902;49.638;11.070;2023-03-20T05:30:53;98532.88;;;6.54;100.00
70445;BME280;57902;49.638;11.070;2023-03-20T05:33:23;98537.94;;;6.60;100.00
70445;BME280;57902;49.638;11.070;2023-03-20T05:35:50;98535.31;;;6.64;100.00
70445;BME280;57902;49.638;11.070;2023-03-20T05:38:16;98539.56;;;6.69;100.00
70445;BME280;57902;49.638;11.070;2023-03-20T05:40:43;98535.25;;;6.72;100.00
70445;BME280;57902;49.638;11.070;2023-03-20T05:43:09;98541.22;;;6.74;100.00
70445;BME280;57902;49.638;11.070;2023-03-20T05:45:36;98543.75;;;6.77;100.00
70445;BME280;57902;49.638;11.070;2023-03-20T05:48:02;98543.75;;;6.77;100.00
70445;BME280;57902;49.638;11.070;2023-03-20T05:50:29;98545.47;;;6.78;100.00
70445;BME280;57902;49.638;11.070;2023-03-20T05:52:55;98552.25;;;6.79;100.00
70445;BME280;57902;49.638;11.070;2023-03-20T05:55:22;98555.63;;;6.85;100.00
70445;BME280;57902;49.638;11.070;2023-03-20T05:57:48;98555.59;;;6.88;100.00
70445;BME280;57902;49.638;11.070;2023-03-20T06:00:15;98560.69;;;6.92;100.00
70445;BME280;57902;49.638;11.070;2023-03-20T06:02:42;98563.22;;;6.95;100.00
70445;BME280;57902;49.638;11.070;2023-03-20T06:05:12;98566.59;;;7.00;100.00
70445;BME280;57902;49.638;11.070;2023-03-20T06:07:38;98571.66;;;7.05;100.00
70445;BME280;57902;49.638;11.070;2023-03-20T06:10:05;98575.03;;;7.09;100.00
70445;BME280;57902;49.638;11.070;2023-03-20T06:12:32;98577.56;;;7.10;100.00
70445;BME280;57902;49.638;11.070;2023-03-20T06:14:59;98571.47;;;7.21;100.00
70445;BME280;57902;49.638;11.070;2023-03-20T06:17:26;98587.66;;;7.26;100.00
70445;BME280;57902;49.638;11.070;2023-03-20T06:19:52;98572.28;;;7.26;100.00
70445;BME280;57902;49.638;11.070;2023-03-20T06:22:19;98571.31;;;7.36;100.00
70445;BME280;57902;49.638;11.070;2023-03-20T06:24:45;98580.69;;;7.39;100.00
70445;BME280;57902;49.638;11.070;2023-03-20T06:27:14;98578.91;;;7.44;100.00
70445;BME280;57902;49.638;11.070;2023-03-20T06:29:41;98577.97;;;7.49;100.00
70445;BME280;57902;49.638;11.070;2023-03-20T06:32:07;98578.81;;;7.50;100.00
70445;BME280;57902;49.638;11.070;2023-03-20T06:34:35;98584.06;;;7.41;100.00
70445;BME280;57902;49.638;11.070;2023-03-20T06:37:02;98580.53;;;7.49;100.00
70445;BME280;57902;49.638;11.070;2023-03-20T06:39:29;98587.34;;;7.53;100.00
70445;BME280;57902;49.638;11.070;2023-03-20T06:41:55;98582.16;;;7.57;100.00
70445;BME280;57902;49.638;11.070;2023-03-20T06:44:22;98582.97;;;7.59;100.00
70445;BME280;57902;49.638;11.070;2023-03-20T06:46:48;98592.25;;;7.69;100.00
70445;BME280;57902;49.638;11.070;2023-03-20T06:49:15;98588.03;;;7.68;100.00
70445;BME280;57902;49.638;11.070;2023-03-20T06:51:42;98584.50;;;7.74;100.00
70445;BME280;57902;49.638;11.070;2023-03-20T06:54:08;98587.84;;;7.80;100.00
70445;BME280;57902;49.638;11.070;2023-03-20T06:56:34;98586.09;;;7.82;100.00
70445;BME280;57902;49.638;11.070;2023-03-20T06:59:01;98583.66;;;7.73;100.00
70445;BME280;57902;49.638;11.070;2023-03-20T07:01:28;98582.75;;;7.77;100.00
70445;BME280;57902;49.638;11.070;2023-03-20T07:03:54;98581.06;;;7.76;100.00
70445;BME280;57902;49.638;11.070;2023-03-20T07:06:21;98584.44;;;7.80;100.00
70445;BME280;57902;49.638;11.070;2023-03-20T07:08:48;98583.47;;;7.88;100.00
70445;BME280;57902;49.638;11.070;2023-03-20T07:11:14;98580.84;;;7.93;100.00
70445;BME280;57902;49.638;11.070;2023-03-20T07:13:41;98574.75;;;8.00;100.00
70445;BME280;57902;49.638;11.070;2023-03-20T07:16:08;98580.66;;;8.04;100.00
70445;BME280;57902;49.638;11.070;2023-03-20T07:18:35;98584.03;;;8.09;100.00
70445;BME280;57902;49.638;11.070;2023-03-20T07:21:03;98583.28;;;8.01;100.00
70445;BME280;57902;49.638;11.070;2023-03-20T07:23:32;98586.56;;;8.12;100.00
70445;BME280;57902;49.638;11.070;2023-03-20T07:26:00;98595.00;;;8.17;100.00
70445;BME280;57902;49.638;11.070;2023-03-20T07:28:26;98588.84;;;8.29;100.00
70445;BME280;57902;49.638;11.070;2023-03-20T07:30:53;98594.72;;;8.37;100.00
70445;BME280;57902;49.638;11.070;2023-03-20T07:33:20;98597.19;;;8.45;100.00
70445;BME280;57902;49.638;11.070;2023-03-20T07:35:51;98592.78;;;8.53;100.00
70445;BME280;57902;49.638;11.070;2023-03-20T07:38:21;98594.31;;;8.65;100.00
70445;BME280;57902;49.638;11.070;2023-03-20T07:40:52;98587.31;;;8.72;100.00
70445;BME280;57902;49.638;11.070;2023-03-20T07:43:18;98590.66;;;8.79;100.00
70445;BME280;57902;49.638;11.070;2023-03-20T07:45:45;98591.41;;;8.85;100.00
70445;BME280;57902;49.638;11.070;2023-03-20T07:48:11;98596.75;;;8.71;100.00
70445;BME280;57902;49.638;11.070;2023-03-20T07:50:38;98604.34;;;8.79;100.00
70445;BME280;57902;49.638;11.070;2023-03-20T07:53:04;98600.13;;;8.75;100.00
70445;BME280;57902;49.638;11.070;2023-03-20T07:55:31;98597.41;;;8.84;100.00
70445;BME280;57902;49.638;11.070;2023-03-20T07:57:57;98587.16;;;8.83;100.00
70445;BME280;57902;49.638;11.070;2023-03-20T08:00:24;98587.78;;;8.94;100.00
70445;BME280;57902;49.638;11.070;2023-03-20T08:02:53;98601.50;;;8.95;100.00
70445;BME280;57902;49.638;11.070;2023-03-20T08:05:22;98600.56;;;9.00;100.00
70445;BME280;57902;49.638;11.070;2023-03-20T08:07:52;98602.22;;;9.01;100.00
70445;BME280;57902;49.638;11.070;2023-03-20T08:10:19;98604.44;;;8.73;100.00
70445;BME280;57902;49.638;11.070;2023-03-20T08:12:45;98606.00;;;8.83;100.00
70445;BME280;57902;49.638;11.070;2023-03-20T08:15:12;98590.38;;;8.92;100.00
70445;BME280;57902;49.638;11.070;2023-03-20T08:17:48;98597.25;;;8.93;100.00
70445;BME280;57902;49.638;11.070;2023-03-20T08:20:15;98593.56;;;9.07;100.00
70445;BME280;57902;49.638;11.070;2023-03-20T08:22:45;98596.00;;;9.13;100.00
70445;BME280;57902;49.638;11.070;2023-03-20T08:25:12;98597.03;;;9.04;100.00
70445;BME280;57902;49.638;11.070;2023-03-20T08:27:39;98592.94;;;8.94;100.00
70445;BME280;57902;49.638;11.070;2023-03-20T08:30:08;98596.00;;;9.13;100.00
70445;BME280;57902;49.638;11.070;2023-03-20T08:32:35;98598.47;;;9.21;100.00
70445;BME280;57902;49.638;11.070;2023-03-20T08:35:02;98599.09;;;9.32;100.00
70445;BME280;57902;49.638;11.070;2023-03-20T08:37:28;98593.22;;;9.25;100.00
70445;BME280;57902;49.638;11.070;2023-03-20T08:39:55;98589.94;;;9.17;100.00
70445;BME280;57902;49.638;11.070;2023-03-20T08:42:21;98595.91;;;9.21;100.00
70445;BME280;57902;49.638;11.070;2023-03-20T08:44:47;98596.00;;;9.16;100.00
70445;BME280;57902;49.638;11.070;2023-03-20T08:47:14;98591.16;;;9.43;100.00
70445;BME280;57902;49.638;11.070;2023-03-20T08:49:41;98594.63;;;9.42;100.00
70445;BME280;57902;49.638;11.070;2023-03-20T08:52:08;98592.75;;;9.50;100.00
70445;BME280;57902;49.638;11.070;2023-03-20T08:54:35;98604.34;;;9.70;100.00
70445;BME280;57902;49.638;11.070;2023-03-20T08:57:01;98597.41;;;9.73;100.00
70445;BME280;57902;49.638;11.070;2023-03-20T08:59:28;98602.53;;;9.75;100.00
70445;BME280;57902;49.638;11.070;2023-03-20T09:01:54;98610.06;;;9.84;100.00
70445;BME280;57902;49.638;11.070;2023-03-20T09:04:21;98611.69;;;9.88;100.00
70445;BME280;57902;49.638;11.070;2023-03-20T09:06:48;98610.63;;;9.98;100.00
70445;BME280;57902;49.638;11.070;2023-03-20T09:09:15;98609.19;;;9.85;100.00
70445;BME280;57902;49.638;11.070;2023-03-20T09:11:43;98604.72;;;9.92;100.00
70445;BME280;57902;49.638;11.070;2023-03-20T09:14:11;98606.34;;;9.97;100.00
70445;BME280;57902;49.638;11.070;2023-03-20T09:16:37;98607.84;;;10.06;100.00
70445;BME280;57902;49.638;11.070;2023-03-20T09:19:04;98619.13;;;10.01;100.00
70445;BME280;57902;49.638;11.070;2023-03-20T09:21:30;98616.22;;;9.77;100.00
70445;BME280;57902;49.638;11.070;2023-03-20T09:23:57;98618.47;;;9.91;100.00
70445;BME280;57902;49.638;11.070;2023-03-20T09:26:23;98609.84;;;9.93;100.00
70445;BME280;57902;49.638;11.070;2023-03-20T09:28:50;98619.13;;;10.01;100.00
70445;BME280;57902;49.638;11.070;2023-03-20T09:31:16;98614.75;;;10.04;100.00
70445;BME280;57902;49.638;11.070;2023-03-20T09:33:43;98623.13;;;10.14;100.00
70445;BME280;57902;49.638;11.070;2023-03-20T09:36:09;98622.94;;;10.22;100.00
70445;BME280;57902;49.638;11.070;2023-03-20T09:38:37;98631.06;;;10.45;100.00
70445;BME280;57902;49.638;11.070;2023-03-20T09:41:04;98630.28;;;10.42;100.00
70445;BME280;57902;49.638;11.070;2023-03-20T09:43:46;98624.88;;;10.51;100.00
70445;BME280;57902;49.638;11.070;2023-03-20T09:46:32;98637.06;;;10.46;100.00
70445;BME280;57902;49.638;11.070;2023-03-20T09:49:21;98632.25;;;10.66;100.00
70445;BME280;57902;49.638;11.070;2023-03-20T09:51:56;98636.63;;;10.64;100.00
70445;BME280;57902;49.638;11.070;2023-03-20T09:54:39;98630.84;;;10.55;100.00
70445;BME280;57902;49.638;11.070;2023-03-20T09:57:23;98633.06;;;10.31;100.00
70445;BME280;57902;49.638;11.070;2023-03-20T09:59:54;98627.66;;;10.43;100.00
70445;BME280;57902;49.638;11.070;2023-03-20T10:02:33;98624.41;;;10.37;100.00
70445;BME280;57902;49.638;11.070;2023-03-20T10:05:02;98623.22;;;10.50;100.00
70445;BME280;57902;49.638;11.070;2023-03-20T10:07:29;98628.38;;;10.50;100.00
70445;BME280;57902;49.638;11.070;2023-03-20T10:09:56;98629.34;;;10.44;100.00
70445;BME280;57902;49.638;11.070;2023-03-20T10:12:57;98629.84;;;10.60;100.00
70445;BME280;57902;49.638;11.070;2023-03-20T10:15:40;98628.13;;;10.59;100.00
70445;BME280;57902;49.638;11.070;2023-03-20T10:18:17;98625.38;;;10.67;100.00
70445;BME280;57902;49.638;11.070;2023-03-20T10:20:54;98619.69;;;10.54;100.00
70445;BME280;57902;49.638;11.070;2023-03-20T10:23:35;98629.69;;;10.66;100.00
70445;BME280;57902;49.638;11.070;2023-03-20T10:26:10;98625.38;;;10.67;100.00
70445;BME280;57902;49.638;11.070;2023-03-20T10:31:27;98629.78;;;10.63;100.00
70445;BME280;57902;49.638;11.070;2023-03-20T10:36:45;98626.00;;;10.77;98.68
70445;BME280;57902;49.638;11.070;2023-03-20T10:41:53;98620.69;;;10.83;99.97
70445;BME280;57902;49.638;11.070;2023-03-20T10:44:37;98617.81;;;10.95;98.74
70445;BME280;57902;49.638;11.070;2023-03-20T10:47:06;98620.13;;;11.05;97.52
70445;BME280;57902;49.638;11.070;2023-03-20T10:49:54;98624.22;;;11.13;96.02
70445;BME280;57902;49.638;11.070;2023-03-20T10:52:26;98621.50;;;11.18;94.53
70445;BME280;57902;49.638;11.070;2023-03-20T10:55:03;98617.38;;;11.11;95.03
70445;BME280;57902;49.638;11.070;2023-03-20T10:57:38;98623.47;;;11.08;95.17
70445;BME280;57902;49.638;11.070;2023-03-20T11:00:13;98625.00;;;11.15;96.41
70445;BME280;57902;49.638;11.070;2023-03-20T11:02:44;98614.63;;;11.17;94.61
70445;BME280;57902;49.638;11.070;2023-03-20T11:05:38;98614.56;;;11.20;93.04
70445;BME280;57902;49.638;11.070;2023-03-20T11:08:09;98612.84;;;11.20;93.57
70445;BME280;57902;49.638;11.070;2023-03-20T11:10:39;98613.81;;;11.16;93.11
70445;BME280;57902;49.638;11.070;2023-03-20T11:13:14;98619.00;;;11.15;93.56
70445;BME280;57902;49.638;11.070;2023-03-20T11:15:44;98616.13;;;11.26;91.15
70445;BME280;57902;49.638;11.070;2023-03-20T11:18:12;98614.72;;;11.14;92.94
70445;BME280;57902;49.638;11.070;2023-03-20T11:20:49;98626.06;;;11.08;92.29
70445;BME280;57902;49.638;11.070;2023-03-20T11:23:19;98619.97;;;11.11;92.65
70445;BME280;57902;49.638;11.070;2023-03-20T11:25:58;98618.13;;;11.16;92.11
70445;BME280;57902;49.638;11.070;2023-03-20T11:28:33;98618.03;;;11.19;92.41
70445;BME280;57902;49.638;11.070;2023-03-20T11:31:05;98607.16;;;11.08;92.47
70445;BME280;57902;49.638;11.070;2023-03-20T11:33:37;98612.31;;;11.08;92.41
70445;BME280;57902;49.638;11.070;2023-03-20T11:36:20;98610.06;;;10.95;93.06
70445;BME280;57902;49.638;11.070;2023-03-20T11:38:49;98604.75;;;11.01;93.43
70445;BME280;57902;49.638;11.070;2023-03-20T11:41:26;98615.81;;;11.05;93.74
70445;BME280;57902;49.638;11.070;2023-03-20T11:43:54;98606.09;;;11.15;94.13
70445;BME280;57902;49.638;11.070;2023-03-20T11:46:22;98614.25;;;11.32;92.61
70445;BME280;57902;49.638;11.070;2023-03-20T11:49:04;98609.69;;;11.41;91.75
70445;BME280;57902;49.638;11.070;2023-03-20T11:51:33;98606.88;;;11.50;90.80
70445;BME280;57902;49.638;11.070;2023-03-20T11:54:02;98611.88;;;11.56;90.30
70445;BME280;57902;49.638;11.070;2023-03-20T11:56:32;98604.06;;;11.58;90.34
70445;BME280;57902;49.638;11.070;2023-03-20T12:01:41;98599.75;;;11.58;89.43
70445;BME280;57902;49.638;11.070;2023-03-20T12:04:18;98607.28;;;11.66;88.79
70445;BME280;57902;49.638;11.070;2023-03-20T12:07:05;98605.91;;;11.84;87.98
70445;BME280;57902;49.638;11.070;2023-03-20T12:09:41;98599.91;;;11.82;88.14
70445;BME280;57902;49.638;11.070;2023-03-20T12:18:03;98589.13;;;11.99;87.62
70445;BME280;57902;49.638;11.070;2023-03-20T12:25:56;98579.56;;;12.01;85.29
70445;BME280;57902;49.638;11.070;2023-03-20T12:31:19;98575.69;;;12.16;84.50
70445;BME280;57902;49.638;11.070;2023-03-20T12:34:08;98577.81;;;12.30;84.39
70445;BME280;57902;49.638;11.070;2023-03-20T12:36:39;98575.53;;;12.47;82.98
70445;BME280;57902;49.638;11.070;2023-03-20T12:39:14;98571.91;;;12.53;81.66
70445;BME280;57902;49.638;11.070;2023-03-20T12:47:14;98575.97;;;12.35;82.10
70445;BME280;57902;49.638;11.070;2023-03-20T12:49:56;98575.41;;;12.25;82.47
70445;BME280;57902;49.638;11.070;2023-03-20T13:01:00;98573.00;;;12.19;81.46
70445;BME280;57902;49.638;11.070;2023-03-20T13:08:40;98571.28;;;11.89;84.55
70445;BME280;57902;49.638;11.070;2023-03-20T13:11:20;98569.06;;;11.77;85.84
70445;BME280;57902;49.638;11.070;2023-03-20T13:13:54;98569.84;;;11.81;85.85
70445;BME280;57902;49.638;11.070;2023-03-20T13:16:32;98560.56;;;11.73;86.70
70445;BME280;57902;49.638;11.070;2023-03-20T13:19:07;98570.38;;;11.90;84.40
70445;BME280;57902;49.638;11.070;2023-03-20T13:21:44;98559.09;;;11.95;83.86
70445;BME280;57902;49.638;11.070;2023-03-20T13:29:40;98551.72;;;12.11;84.66
70445;BME280;57902;49.638;11.070;2023-03-20T13:32:16;98555.03;;;12.16;82.77
70445;BME280;57902;49.638;11.070;2023-03-20T13:35:09;98550.63;;;12.18;82.87
70445;BME280;57902;49.638;11.070;2023-03-20T13:37:45;98551.31;;;12.24;83.96
70445;BME280;57902;49.638;11.070;2023-03-20T13:43:02;98549.63;;;12.49;83.97
70445;BME280;57902;49.638;11.070;2023-03-20T13:45:36;98536.38;;;12.58;83.12
70445;BME280;57902;49.638;11.070;2023-03-20T13:56:17;98534.84;;;12.54;81.66
70445;BME280;57902;49.638;11.070;2023-03-20T14:01:42;98531.00;;;12.39;79.90
70445;BME280;57902;49.638;11.070;2023-03-20T14:04:17;98526.38;;;12.22;80.72
70445;BME280;57902;49.638;11.070;2023-03-20T14:06:55;98517.88;;;12.18;81.29
70445;BME280;57902;49.638;11.070;2023-03-20T14:09:50;98521.06;;;12.27;80.30
70445;BME280;57902;49.638;11.070;2023-03-20T14:12:23;98520.41;;;12.20;80.91
70445;BME280;57902;49.638;11.070;2023-03-20T14:14:59;98516.00;;;12.23;80.94
70445;BME280;57902;49.638;11.070;2023-03-20T14:17:30;98516.63;;;12.30;81.45
70445;BME280;57902;49.638;11.070;2023-03-20T14:20:10;98513.38;;;12.25;81.31
70445;BME280;57902;49.638;11.070;2023-03-20T14:22:38;98512.25;;;12.32;81.36
70445;BME280;57902;49.638;11.070;2023-03-20T14:25:19;98517.69;;;12.24;80.52
70445;BME280;57902;49.638;11.070;2023-03-20T14:27:55;98511.97;;;12.15;81.64
70445;BME280;57902;49.638;11.070;2023-03-20T14:33:22;98515.84;;;12.01;81.92
70445;BME280;57902;49.638;11.070;2023-03-20T14:35:49;98518.53;;;11.98;82.13
70445;BME280;57902;49.638;11.070;2023-03-20T14:40:58;98504.19;;;11.88;82.59
70445;BME280;57902;49.638;11.070;2023-03-20T14:46:46;98504.53;;;11.76;82.86
70445;BME280;57902;49.638;11.070;2023-03-20T14:49:29;98506.53;;;11.67;83.69
70445;BME280;57902;49.638;11.070;2023-03-20T14:52:11;98515.25;;;11.63;84.18
70445;BME280;57902;49.638;11.070;2023-03-20T14:54:41;98504.31;;;11.55;85.50